Time;durP1;ratioP1;P1;durP2;ratioP2;P2;SDS_P1;SDS_P2;PMS_P1;PMS_P2;Temp;Humidity;BMP_temperature;BMP_pressure;BME280_temperature;BME280_humidity;BME280_pressure;Samples;Min_cycle;Max_cycle;Signal;HPM_P1;HPM_P2
2023/04/20 00:00:35;;;;;;;7.90;2.83;;;;;;;7.57;86.94;101993.94;7391884;19;21246;-35
2023/04/20 00:03:06;;;;;;;7.30;2.50;;;;;;;7.59;88.13;101994.94;7394820;19;20392;-35
2023/04/20 00:05:39;;;;;;;10.00;3.20;;;;;;;7.58;89.61;101995.72;7390441;19;20510;-35
2023/04/20 00:08:08;;;;;;;8.20;1.97;;;;;;;7.51;90.60;101978.06;7392664;19;20387;-34
2023/04/20 00:10:38;;;;;;;10.60;2.57;;;;;;;7.53;90.89;101987.69;7391741;19;20447;-34
2023/04/20 00:13:07;;;;;;;8.33;1.90;;;;;;;7.46;92.47;101970.03;7392997;19;20383;-35
2023/04/20 00:15:37;;;;;;;10.90;2.13;;;;;;;7.39;93.12;101994.34;7390637;19;20423;-35
2023/04/20 00:18:06;;;;;;;7.70;2.17;;;;;;;7.35;93.77;101982.09;7391969;19;20403;-36
2023/04/20 00:20:39;;;;;;;7.93;2.03;;;;;;;7.34;95.54;101969.13;7391263;19;20462;-35
2023/04/20 00:23:09;;;;;;;6.33;1.83;;;;;;;7.31;96.32;101974.91;7392470;19;20420;-34
2023/04/20 00:25:38;;;;;;;8.13;2.30;;;;;;;7.21;96.58;101980.13;7391284;19;20971;-35
2023/04/20 00:28:08;;;;;;;6.33;2.23;;;;;;;7.25;97.95;101984.72;7392354;19;20398;-35
2023/04/20 00:30:37;;;;;;;11.10;2.50;;;;;;;7.31;98.89;101995.47;7391468;19;20415;-35
2023/04/20 00:33:07;;;;;;;6.47;2.27;;;;;;;7.32;100.00;101992.09;7392577;19;20392;-35
2023/04/20 00:35:39;;;;;;;8.30;1.83;;;;;;;7.22;99.73;101987.94;7389633;19;20433;-35
2023/04/20 00:38:09;;;;;;;4.57;1.73;;;;;;;7.15;100.00;101983.16;7391800;19;20396;-36
2023/04/20 00:40:38;;;;;;;6.67;2.30;;;;;;;7.05;100.00;101986.69;7390949;19;20462;-35
2023/04/20 00:43:12;;;;;;;6.60;2.00;;;;;;;6.91;100.00;101990.75;7391454;19;20384;-35
2023/04/20 00:45:41;;;;;;;4.87;2.10;;;;;;;6.87;100.00;101971.69;7392414;19;20821;-35
2023/04/20 00:48:11;;;;;;;6.67;1.77;;;;;;;6.73;100.00;101947.53;7391637;19;20931;-35
2023/04/20 00:50:43;;;;;;;11.37;3.23;;;;;;;6.75;100.00;101940.88;7392623;19;20423;-35
2023/04/20 00:53:13;;;;;;;8.27;2.30;;;;;;;6.70;100.00;101938.69;7392284;19;20416;-35
2023/04/20 00:55:44;;;;;;;7.97;2.27;;;;;;;6.67;100.00;101928.22;7392411;19;20482;-35
2023/04/20 00:58:14;;;;;;;7.30;2.03;;;;;;;6.70;100.00;101920.75;7389754;19;20739;-35
2023/04/20 01:00:44;;;;;;;5.77;2.30;;;;;;;6.64;100.00;101927.97;7390976;19;20391;-36
2023/04/20 01:03:13;;;;;;;5.70;1.87;;;;;;;6.62;100.00;101923.63;7391162;19;20415;-36
2023/04/20 01:05:46;;;;;;;10.00;1.90;;;;;;;6.62;100.00;101928.75;7389027;19;20431;-35
2023/04/20 01:08:15;;;;;;;6.20;2.37;;;;;;;6.56;100.00;101932.53;7388926;19;20395;-35
2023/04/20 01:10:45;;;;;;;6.80;2.10;;;;;;;6.60;100.00;101920.06;7390391;19;20743;-35
2023/04/20 01:13:14;;;;;;;8.10;3.00;;;;;;;6.59;100.00;101912.25;7388878;19;20396;-35
2023/04/20 01:15:44;;;;;;;9.80;2.93;;;;;;;6.51;100.00;101919.34;7394297;19;20423;-35
2023/04/20 01:18:14;;;;;;;6.80;2.10;;;;;;;6.48;100.00;101912.31;7390483;19;20387;-35
2023/04/20 01:20:46;;;;;;;8.63;2.63;;;;;;;6.58;100.00;101895.97;7391694;19;20439;-35
2023/04/20 01:23:19;;;;;;;7.77;2.70;;;;;;;6.49;100.00;101885.00;7390310;19;20939;-35
2023/04/20 01:25:48;;;;;;;7.50;2.47;;;;;;;6.39;100.00;101882.50;7391304;19;20435;-35
2023/04/20 01:28:18;;;;;;;5.90;2.20;;;;;;;6.45;100.00;101867.59;7388858;19;20399;-35
2023/04/20 01:30:48;;;;;;;6.87;2.30;;;;;;;6.42;100.00;101857.13;7389826;19;20384;-35
2023/04/20 01:33:17;;;;;;;22.87;8.60;;;;;;;6.41;100.00;101866.47;7389216;19;20955;-35
2023/04/20 01:35:47;;;;;;;20.73;8.07;;;;;;;6.39;100.00;101862.91;7393623;19;20462;-35
2023/04/20 01:38:22;;;;;;;10.37;3.60;;;;;;;6.37;100.00;101850.72;7387678;19;20419;-35
2023/04/20 01:40:52;;;;;;;10.07;3.40;;;;;;;6.35;100.00;101851.50;7393764;19;20407;-35
2023/04/20 01:43:23;;;;;;;7.53;3.00;;;;;;;6.37;100.00;101848.16;7388019;19;20936;-34
2023/04/20 01:45:52;;;;;;;11.50;2.97;;;;;;;6.39;100.00;101850.09;7389636;19;20455;-36
2023/04/20 01:48:22;;;;;;;9.10;3.10;;;;;;;6.38;100.00;101840.59;7387998;19;20387;-35
2023/04/20 01:50:52;;;;;;;7.70;2.37;;;;;;;6.35;100.00;101840.34;7390695;19;20405;-34
2023/04/20 01:53:24;;;;;;;9.50;3.17;;;;;;;6.19;100.00;101833.16;7386018;19;20392;-35
2023/04/20 01:55:54;;;;;;;13.67;3.30;;;;;;;6.17;100.00;101797.19;7389046;19;20424;-35
2023/04/20 01:58:23;;;;;;;7.60;2.30;;;;;;;6.09;100.00;101777.75;7388100;19;20384;-35
2023/04/20 02:00:53;;;;;;;8.50;2.77;;;;;;;6.02;100.00;101722.59;7389074;19;20399;-35
2023/04/20 02:03:22;;;;;;;5.90;2.43;;;;;;;5.99;100.00;101691.56;7387453;19;20391;-35
2023/04/20 02:05:52;;;;;;;9.43;3.03;;;;;;;5.82;100.00;101654.44;7388595;19;20499;-35
2023/04/20 02:08:24;;;;;;;10.10;2.60;;;;;;;5.77;100.00;101627.59;7387201;19;20409;-36
2023/04/20 02:10:54;;;;;;;8.83;3.13;;;;;;;5.71;100.00;101625.47;7389342;19;20387;-35
2023/04/20 02:13:23;;;;;;;6.13;2.87;;;;;;;5.70;100.00;101636.50;7386617;19;20384;-37
2023/04/20 02:15:53;;;;;;;6.00;2.57;;;;;;;5.63;100.00;101637.69;7389602;19;20966;-35
2023/04/20 02:18:23;;;;;;;11.10;2.70;;;;;;;5.58;100.00;101609.97;7392985;19;20759;-35
2023/04/20 02:20:53;;;;;;;7.30;3.20;;;;;;;5.62;100.00;101611.97;7394589;19;20935;-35
2023/04/20 02:23:25;;;;;;;6.80;2.60;;;;;;;5.63;100.00;101611.19;7395362;19;20756;-35
2023/04/20 02:25:55;;;;;;;7.47;2.80;;;;;;;5.60;100.00;101604.19;7396169;19;20451;-35
2023/04/20 02:28:25;;;;;;;8.80;3.07;;;;;;;5.45;100.00;101609.03;7393935;19;20387;-36
2023/04/20 02:30:54;;;;;;;14.73;4.00;;;;;;;5.53;100.00;101607.94;7394637;19;20936;-34
2023/04/20 02:33:24;;;;;;;10.83;3.60;;;;;;;5.54;100.00;101611.41;7392666;19;20391;-43
2023/04/20 02:35:54;;;;;;;15.23;3.27;;;;;;;5.57;100.00;101614.19;7394926;19;20403;-36
2023/04/20 02:38:26;;;;;;;7.00;2.53;;;;;;;5.58;100.00;101602.28;7391907;19;20380;-37
2023/04/20 02:40:55;;;;;;;10.63;2.80;;;;;;;5.57;100.00;101600.47;7394929;19;20407;-35
2023/04/20 02:43:25;;;;;;;7.83;2.70;;;;;;;5.55;100.00;101585.03;7392908;19;20402;-35
2023/04/20 02:45:54;;;;;;;8.80;3.80;;;;;;;5.53;100.00;101600.25;7394637;19;20419;-36
2023/04/20 02:48:24;;;;;;;8.17;3.10;;;;;;;5.47;100.00;101588.66;7392928;19;20415;-35
2023/04/20 02:50:56;;;;;;;11.30;3.67;;;;;;;5.45;100.00;101593.69;7394582;19;21051;-35
2023/04/20 02:53:28;;;;;;;9.73;3.10;;;;;;;5.50;100.00;101589.78;7391863;19;20411;-35
2023/04/20 02:55:58;;;;;;;7.70;2.87;;;;;;;5.57;100.00;101592.81;7394248;19;20978;-35
2023/04/20 02:58:28;;;;;;;8.47;3.73;;;;;;;5.60;100.00;101587.94;7392505;19;20388;-35
2023/04/20 03:01:01;;;;;;;10.73;3.33;;;;;;;5.47;100.00;101587.00;7396960;19;20416;-36
2023/04/20 03:03:30;;;;;;;9.00;3.23;;;;;;;5.58;100.00;101589.50;7391800;19;20420;-35
2023/04/20 03:06:00;;;;;;;10.73;2.60;;;;;;;5.59;100.00;101587.03;7399059;19;20423;-35
2023/04/20 03:08:32;;;;;;;12.37;3.47;;;;;;;5.60;100.00;101588.84;7391741;19;20383;-35
2023/04/20 03:11:02;;;;;;;8.93;3.60;;;;;;;5.61;100.00;101590.59;7394830;19;20414;-35
2023/04/20 03:13:31;;;;;;;10.93;3.00;;;;;;;5.61;100.00;101599.94;7392198;19;20769;-34
2023/04/20 03:16:01;;;;;;;10.93;3.90;;;;;;;5.61;100.00;101594.81;7394395;19;20423;-36
2023/04/20 03:18:30;;;;;;;11.77;3.57;;;;;;;5.57;100.00;101595.34;7395843;19;20765;-34
2023/04/20 03:21:00;;;;;;;14.20;4.33;;;;;;;5.58;100.00;101586.94;7394141;19;20396;-35
2023/04/20 03:23:32;;;;;;;8.37;3.30;;;;;;;5.57;100.00;101582.56;7392984;19;20923;-35
2023/04/20 03:26:01;;;;;;;10.60;3.97;;;;;;;5.52;100.00;101578.00;7395133;19;20455;-35
2023/04/20 03:28:31;;;;;;;9.77;3.20;;;;;;;5.46;100.00;101579.19;7391259;19;20400;-35
2023/04/20 03:31:00;;;;;;;10.97;5.07;;;;;;;5.50;100.00;101589.78;7393358;19;20387;-36
2023/04/20 03:33:30;;;;;;;10.50;3.60;;;;;;;5.51;100.00;101599.25;7390911;19;20391;-36
2023/04/20 03:35:59;;;;;;;10.03;3.60;;;;;;;5.39;100.00;101612.00;7395481;19;20511;-35
2023/04/20 03:38:32;;;;;;;12.33;4.17;;;;;;;5.28;100.00;101635.88;7390305;19;20399;-35
2023/04/20 03:41:01;;;;;;;13.80;3.83;;;;;;;5.22;100.00;101666.09;7397167;19;20403;-35
2023/04/20 03:43:31;;;;;;;8.37;4.07;;;;;;;5.35;100.00;101708.91;7390489;19;20395;-35
2023/04/20 03:46:00;;;;;;;8.50;3.67;;;;;;;5.30;100.00;101726.47;7394345;19;20437;-35
2023/04/20 03:48:30;;;;;;;11.97;4.17;;;;;;;5.34;100.00;101748.09;7391022;19;20814;-36
2023/04/20 03:51:00;;;;;;;18.10;5.07;;;;;;;5.23;100.00;101750.66;7393602;19;20400;-35
2023/04/20 03:53:32;;;;;;;12.10;4.83;;;;;;;5.13;100.00;101784.88;7390204;19;20925;-35
2023/04/20 03:56:02;;;;;;;11.20;3.73;;;;;;;5.07;100.00;101830.41;7394692;19;20431;-35
2023/04/20 03:58:32;;;;;;;12.77;3.67;;;;;;;5.06;100.00;101851.66;7391327;19;20392;-35
2023/04/20 04:01:06;;;;;;;12.23;4.50;;;;;;;5.03;100.00;101869.31;7392951;19;20804;-35
2023/04/20 04:03:35;;;;;;;28.23;9.53;;;;;;;4.94;100.00;101895.06;7389317;19;20408;-35
2023/04/20 04:06:06;;;;;;;19.73;8.27;;;;;;;5.06;100.00;101920.75;7392037;19;20439;-36
2023/04/20 04:08:38;;;;;;;24.63;9.13;;;;;;;4.95;100.00;101953.09;7390431;19;20427;-35
2023/04/20 04:11:08;;;;;;;17.40;8.10;;;;;;;4.95;100.00;101970.09;7392963;19;20476;-35
2023/04/20 04:13:37;;;;;;;15.17;6.23;;;;;;;4.96;100.00;102000.03;7389883;19;20426;-35
2023/04/20 04:16:07;;;;;;;29.17;10.43;;;;;;;5.00;100.00;102022.56;7392575;19;20423;-35
2023/04/20 04:18:37;;;;;;;17.30;5.67;;;;;;;4.92;100.00;102044.03;7389626;19;20419;-35
2023/04/20 04:21:09;;;;;;;22.57;9.63;;;;;;;4.79;100.00;102052.31;7392873;19;20395;-35
2023/04/20 04:23:41;;;;;;;17.53;5.90;;;;;;;4.84;100.00;102076.63;7389292;19;20412;-35
2023/04/20 04:26:10;;;;;;;17.23;6.23;;;;;;;4.71;100.00;102090.91;7392568;19;20451;-35
2023/04/20 04:28:40;;;;;;;15.07;6.13;;;;;;;4.69;100.00;102112.88;7391653;19;20801;-35
2023/04/20 04:31:11;;;;;;;29.53;6.93;;;;;;;4.77;100.00;102128.00;7392288;19;20772;-35
2023/04/20 04:33:40;;;;;;;13.33;6.27;;;;;;;4.73;100.00;102135.38;7388849;19;20491;-37
2023/04/20 04:36:11;;;;;;;15.97;6.20;;;;;;;4.83;100.00;102162.66;7391518;19;20427;-35
2023/04/20 04:38:43;;;;;;;14.93;6.33;;;;;;;4.74;100.00;102166.97;7390635;19;20423;-35
2023/04/20 04:41:13;;;;;;;14.23;5.20;;;;;;;4.83;100.00;102187.34;7391339;19;20403;-35
2023/04/20 04:43:43;;;;;;;15.30;6.50;;;;;;;4.85;100.00;102193.50;7389071;19;20424;-35
2023/04/20 04:46:13;;;;;;;11.77;5.10;;;;;;;4.84;100.00;102207.97;7391316;19;20431;-35
2023/04/20 04:48:45;;;;;;;12.77;5.17;;;;;;;4.93;100.00;102212.97;7389664;19;20423;-35
2023/04/20 04:51:15;;;;;;;18.50;4.70;;;;;;;4.99;100.00;102221.19;7393957;19;20416;-35
2023/04/20 04:53:48;;;;;;;14.07;5.30;;;;;;;4.90;100.00;102225.50;7388451;19;20425;-36
2023/04/20 04:56:19;;;;;;;15.90;4.90;;;;;;;4.85;100.00;102217.44;7392036;19;20418;-37
2023/04/20 04:58:48;;;;;;;12.10;4.97;;;;;;;4.91;100.00;102223.84;7389339;19;20438;-35
2023/04/20 05:01:18;;;;;;;12.80;4.67;;;;;;;5.00;100.00;102230.69;7393111;19;20411;-35
2023/04/20 05:03:47;;;;;;;17.87;5.43;;;;;;;5.02;100.00;102229.91;7387717;19;20394;-35
2023/04/20 05:06:17;;;;;;;21.20;6.43;;;;;;;5.03;100.00;102232.56;7394534;19;20427;-35
2023/04/20 05:08:50;;;;;;;17.93;7.67;;;;;;;5.08;100.00;102240.69;7391288;19;20407;-35
2023/04/20 05:11:19;;;;;;;17.97;5.80;;;;;;;4.95;100.00;102237.03;7391094;19;20387;-35
2023/04/20 05:13:49;;;;;;;14.67;5.30;;;;;;;5.01;100.00;102246.91;7387978;19;20430;-36
2023/04/20 05:16:19;;;;;;;13.53;5.10;;;;;;;4.98;100.00;102249.22;7390875;19;20442;-36
2023/04/20 05:18:49;;;;;;;17.63;5.13;;;;;;;5.05;100.00;102250.63;7387816;19;20946;-36
2023/04/20 05:21:19;;;;;;;15.53;5.40;;;;;;;5.03;100.00;102253.03;7393935;19;20395;-35
2023/04/20 05:23:51;;;;;;;9.20;4.70;;;;;;;4.99;100.00;102254.44;7388541;19;20411;-35
2023/04/20 05:26:21;;;;;;;14.07;5.10;;;;;;;5.10;100.00;102257.06;7390730;19;20435;-36
2023/04/20 05:28:50;;;;;;;13.73;5.30;;;;;;;5.05;100.00;102265.97;7388933;19;20411;-35
2023/04/20 05:31:20;;;;;;;18.27;5.70;;;;;;;5.06;100.00;102267.78;7392825;19;20415;-37
2023/04/20 05:33:49;;;;;;;16.03;5.40;;;;;;;5.07;100.00;102273.03;7387347;19;20757;-35
2023/04/20 05:36:19;;;;;;;18.07;6.20;;;;;;;5.09;100.00;102273.19;7390223;19;20982;-38
2023/04/20 05:38:51;;;;;;;12.57;5.17;;;;;;;5.06;100.00;102278.00;7389412;19;20411;-35
2023/04/20 05:41:25;;;;;;;19.33;5.40;;;;;;;5.06;100.00;102285.69;7390613;19;20383;-35
2023/04/20 05:43:55;;;;;;;19.67;6.07;;;;;;;5.04;100.00;102292.34;7387960;19;20422;-35
2023/04/20 05:46:25;;;;;;;20.33;6.87;;;;;;;5.03;100.00;102298.22;7389686;19;20874;-35
2023/04/20 05:48:55;;;;;;;16.83;5.30;;;;;;;5.12;100.00;102296.47;7387700;19;20446;-37
2023/04/20 05:51:27;;;;;;;16.33;5.67;;;;;;;4.97;100.00;102294.34;7388590;19;20402;-36
2023/04/20 05:54:00;;;;;;;20.47;5.60;;;;;;;5.00;100.00;102286.97;7387477;19;20787;-35
2023/04/20 05:56:29;;;;;;;17.37;6.60;;;;;;;5.05;100.00;102289.00;7389655;19;20431;-35
2023/04/20 05:58:59;;;;;;;17.23;5.40;;;;;;;4.98;100.00;102285.91;7387301;19;20875;-38
2023/04/20 06:01:29;;;;;;;13.20;5.10;;;;;;;5.01;100.00;102282.72;7389440;19;20412;-36
2023/04/20 06:03:58;;;;;;;14.20;5.27;;;;;;;5.10;100.00;102283.56;7386813;19;20431;-37
2023/04/20 06:06:28;;;;;;;30.93;13.83;;;;;;;5.60;100.00;102281.81;7389095;19;20423;-35
2023/04/20 06:09:00;;;;;;;30.70;9.57;;;;;;;5.85;100.00;102276.25;7386682;19;20407;-35
2023/04/20 06:11:30;;;;;;;79.50;40.73;;;;;;;6.13;100.00;102281.16;7389244;19;20411;-36
2023/04/20 06:14:00;;;;;;;26.83;10.43;;;;;;;6.40;100.00;102286.84;7386500;19;20962;-36
2023/04/20 06:16:29;;;;;;;28.63;11.47;;;;;;;6.04;100.00;102307.81;7388682;19;20427;-37
2023/04/20 06:18:59;;;;;;;23.70;9.43;;;;;;;5.85;100.00;102312.09;7386285;19;20434;-35
2023/04/20 06:21:29;;;;;;;19.40;8.53;;;;;;;5.67;100.00;102309.75;7388987;19;20752;-36
2023/04/20 06:24:02;;;;;;;16.13;6.57;;;;;;;5.64;100.00;102315.50;7386142;19;20419;-35
2023/04/20 06:26:31;;;;;;;19.43;7.37;;;;;;;5.63;100.00;102316.28;7388954;19;20423;-35
2023/04/20 06:29:01;;;;;;;20.83;6.93;;;;;;;5.67;100.00;102317.44;7388243;19;20423;-36
2023/04/20 06:31:30;;;;;;;19.50;8.00;;;;;;;5.55;100.00;102317.28;7388536;19;20418;-35
2023/04/20 06:34:00;;;;;;;16.97;6.70;;;;;;;5.54;100.00;102313.81;7385338;19;20423;-35
2023/04/20 06:36:30;;;;;;;15.83;5.53;;;;;;;5.54;100.00;102316.38;7388409;19;20443;-35
2023/04/20 06:39:02;;;;;;;99.03;42.73;;;;;;;5.60;100.00;102312.53;7386266;19;20415;-35
2023/04/20 06:41:31;;;;;;;27.87;9.60;;;;;;;5.88;100.00;102312.34;7388484;19;20753;-36
2023/04/20 06:44:01;;;;;;;50.97;24.47;;;;;;;6.33;100.00;102304.28;7385582;19;20775;-35
2023/04/20 06:46:30;;;;;;;37.37;16.40;;;;;;;6.58;100.00;102311.44;7388625;19;20790;-37
2023/04/20 06:49:00;;;;;;;22.60;12.83;;;;;;;6.18;100.00;102320.91;7386883;19;20990;-35
2023/04/20 06:51:31;;;;;;;25.80;7.47;;;;;;;5.77;100.00;102320.03;7389480;19;20399;-36
2023/04/20 06:54:03;;;;;;;24.03;7.27;;;;;;;5.64;100.00;102333.44;7385196;19;20427;-35
2023/04/20 06:56:32;;;;;;;18.23;6.67;;;;;;;5.74;100.00;102339.38;7387187;19;20445;-35
2023/04/20 06:59:04;;;;;;;18.23;7.43;;;;;;;5.89;100.00;102324.44;7387017;19;20422;-36
2023/04/20 07:01:33;;;;;;;16.83;8.40;;;;;;;5.86;100.00;102331.81;7388758;19;20394;-35
2023/04/20 07:04:03;;;;;;;15.50;6.43;;;;;;;5.89;100.00;102329.56;7392978;19;20406;-35
2023/04/20 07:06:33;;;;;;;69.57;29.47;;;;;;;6.04;100.00;102336.00;7393627;19;20990;-35
2023/04/20 07:09:07;;;;;;;26.70;12.83;;;;;;;6.45;100.00;102330.03;7391888;19;20447;-35
2023/04/20 07:11:36;;;;;;;24.63;10.60;;;;;;;6.33;100.00;102339.25;7393877;19;20949;-36
2023/04/20 07:14:06;;;;;;;35.43;14.97;;;;;;;6.08;100.00;102343.19;7394446;19;20451;-35
2023/04/20 07:16:35;;;;;;;15.90;5.77;;;;;;;5.94;100.00;102338.50;7395729;19;20446;-35
2023/04/20 07:19:05;;;;;;;14.40;6.40;;;;;;;5.98;100.00;102343.13;7395060;19;20957;-35
2023/04/20 07:21:35;;;;;;;20.80;6.53;;;;;;;5.94;100.00;102349.66;7396421;19;20973;-38
2023/04/20 07:24:08;;;;;;;12.27;5.40;;;;;;;5.78;100.00;102346.53;7394010;19;20431;-35
2023/04/20 07:26:37;;;;;;;17.87;6.97;;;;;;;5.86;100.00;102343.00;7396144;19;20443;-36
2023/04/20 07:29:07;;;;;;;19.03;6.33;;;;;;;5.88;100.00;102345.66;7394636;19;20430;-35
2023/04/20 07:31:36;;;;;;;21.77;7.13;;;;;;;5.77;100.00;102342.19;7396591;19;20403;-36
2023/04/20 07:34:07;;;;;;;15.23;6.70;;;;;;;5.88;100.00;102343.09;7393350;19;20423;-35
2023/04/20 07:36:37;;;;;;;27.83;6.63;;;;;;;5.88;100.00;102354.25;7395753;19;20454;-35
2023/04/20 07:39:10;;;;;;;16.00;5.30;;;;;;;5.90;100.00;102349.28;7394030;19;20443;-38
2023/04/20 07:41:39;;;;;;;21.20;6.27;;;;;;;5.80;100.00;102357.81;7396325;19;20411;-36
2023/04/20 07:44:10;;;;;;;15.43;5.40;;;;;;;5.94;100.00;102348.75;7394081;19;20474;-36
2023/04/20 07:46:40;;;;;;;22.70;6.60;;;;;;;5.91;100.00;102356.19;7395658;19;20881;-36
2023/04/20 07:49:10;;;;;;;21.07;6.53;;;;;;;5.90;100.00;102349.28;7393916;19;20419;-36
2023/04/20 07:51:39;;;;;;;16.20;5.53;;;;;;;5.92;100.00;102357.97;7396077;19;20768;-35
2023/04/20 07:54:11;;;;;;;21.73;5.87;;;;;;;5.98;100.00;102366.19;7392980;19;20428;-35
2023/04/20 07:56:41;;;;;;;12.97;5.90;;;;;;;5.89;100.00;102368.84;7396001;19;20467;-36
2023/04/20 07:59:10;;;;;;;17.47;6.60;;;;;;;5.83;100.00;102367.44;7393920;19;20411;-36
2023/04/20 08:01:40;;;;;;;26.57;8.13;;;;;;;5.81;100.00;102357.06;7395861;19;20412;-37
2023/04/20 08:04:09;;;;;;;17.03;5.50;;;;;;;5.66;100.00;102354.94;7392088;19;20447;-36
2023/04/20 08:06:39;;;;;;;28.43;8.63;;;;;;;5.64;100.00;102348.78;7395648;19;20451;-36
2023/04/20 08:09:11;;;;;;;28.93;7.77;;;;;;;5.60;100.00;102348.41;7393084;19;20407;-36
2023/04/20 08:11:41;;;;;;;16.43;6.07;;;;;;;5.72;100.00;102339.22;7398159;19;20422;-35
2023/04/20 08:14:11;;;;;;;22.03;9.43;;;;;;;5.67;100.00;102332.78;7391421;19;20427;-38
2023/04/20 08:16:40;;;;;;;34.87;10.50;;;;;;;5.75;100.00;102324.09;7395505;19;20459;-35
2023/04/20 08:19:11;;;;;;;18.40;6.63;;;;;;;5.73;100.00;102323.09;7391925;19;20415;-36
2023/04/20 08:21:43;;;;;;;33.97;8.93;;;;;;;5.74;100.00;102318.88;7395628;19;20415;-36
2023/04/20 08:24:16;;;;;;;22.90;8.00;;;;;;;5.63;100.00;102300.00;7396106;19;20480;-36
2023/04/20 08:26:46;;;;;;;25.83;7.87;;;;;;;5.65;100.00;102298.47;7395302;19;20447;-35
2023/04/20 08:29:15;;;;;;;15.43;6.70;;;;;;;5.68;100.00;102293.59;7396107;19;20422;-37
2023/04/20 08:31:45;;;;;;;18.27;7.10;;;;;;;5.68;100.00;102276.59;7395382;19;20419;-36
2023/04/20 08:34:15;;;;;;;40.60;10.60;;;;;;;5.75;100.00;102249.81;7394596;19;20415;-36
2023/04/20 08:36:45;;;;;;;20.60;8.60;;;;;;;5.72;100.00;102241.00;7396400;19;20776;-35
2023/04/20 08:39:22;;;;;;;51.17;13.03;;;;;;;5.69;100.00;102226.25;7395619;19;20426;-35
2023/04/20 08:41:54;;;;;;;27.43;8.90;;;;;;;5.69;100.00;102216.00;7395790;19;20504;-36
2023/04/20 08:44:24;;;;;;;16.37;7.73;;;;;;;5.72;100.00;102197.44;7390017;19;21461;-36
2023/04/20 08:46:53;;;;;;;19.80;7.23;;;;;;;5.62;100.00;102177.84;7394662;19;21006;-36
2023/04/20 08:49:23;;;;;;;21.37;7.50;;;;;;;5.66;100.00;102138.94;7391309;19;20451;-38
2023/04/20 08:51:53;;;;;;;45.63;13.13;;;;;;;5.58;100.00;102134.84;7394681;19;20791;-35
2023/04/20 08:54:25;;;;;;;22.73;8.77;;;;;;;5.51;100.00;102126.66;7390637;19;21608;-40
2023/04/20 08:56:57;;;;;;;44.17;11.87;;;;;;;5.58;100.00;102127.16;7394800;19;20443;-36
2023/04/20 08:59:27;;;;;;;22.53;7.50;;;;;;;5.57;100.00;102120.22;7391378;19;20446;-36
2023/04/20 09:01:56;;;;;;;22.80;8.23;;;;;;;5.60;100.00;102107.69;7396359;19;20407;-36
2023/04/20 09:04:27;;;;;;;28.80;8.97;;;;;;;5.62;100.00;102094.25;7390543;19;20443;-36
2023/04/20 09:06:57;;;;;;;21.60;8.23;;;;;;;5.55;100.00;102084.28;7394523;19;20463;-35
2023/04/20 09:09:30;;;;;;;18.67;7.53;;;;;;;5.52;100.00;102072.09;7389726;19;20467;-35
2023/04/20 09:12:05;;;;;;;18.70;7.40;;;;;;;5.56;100.00;102051.88;7394963;19;20411;-35
2023/04/20 09:14:44;;;;;;;26.20;9.30;;;;;;;5.68;100.00;102042.63;7390468;19;20450;-36
2023/04/20 09:17:16;;;;;;;26.57;9.17;;;;;;;5.90;100.00;102034.16;7394889;19;20435;-36
2023/04/20 09:19:47;;;;;;;16.37;8.33;;;;;;;6.05;100.00;102027.75;7391233;19;20463;-35
2023/04/20 09:22:16;;;;;;;22.03;7.93;;;;;;;6.09;100.00;102016.06;7395139;19;20500;-36
2023/04/20 09:24:48;;;;;;;22.60;7.83;;;;;;;6.27;100.00;102003.84;7389243;19;20449;-35
2023/04/20 09:27:20;;;;;;;17.33;7.53;;;;;;;6.39;100.00;102001.34;7393609;19;21020;-35
2023/04/20 09:29:58;;;;;;;24.27;9.40;;;;;;;6.28;100.00;102004.72;7390841;19;20439;-35
2023/04/20 09:32:31;;;;;;;21.23;10.03;;;;;;;6.19;100.00;101995.53;7393392;19;20435;-36
2023/04/20 09:35:00;;;;;;;19.87;8.00;;;;;;;6.13;100.00;102004.38;7390198;19;20990;-35
2023/04/20 09:37:30;;;;;;;13.43;6.87;;;;;;;6.22;100.00;102008.56;7392810;19;20443;-35
2023/04/20 09:40:02;;;;;;;19.00;7.30;;;;;;;6.32;100.00;102010.19;7387896;19;21119;-36
2023/04/20 09:42:33;;;;;;;19.03;7.00;;;;;;;6.38;100.00;102006.34;7392925;19;20435;-35
2023/04/20 09:45:03;;;;;;;23.43;7.80;;;;;;;6.39;100.00;102005.56;7390926;19;20469;-35
2023/04/20 09:47:40;;;;;;;21.43;7.27;;;;;;;6.44;100.00;102009.38;7392129;19;21373;-36
2023/04/20 09:50:12;;;;;;;20.97;7.70;;;;;;;6.48;100.00;102014.00;7392158;19;20797;-35
2023/04/20 09:52:58;;;;;;;65.93;14.17;;;;;;;6.41;100.00;102019.41;7394855;19;20422;-35
2023/04/20 09:55:32;;;;;;;23.80;8.30;;;;;;;6.45;100.00;102009.50;7389825;19;20462;-35
2023/04/20 09:58:04;;;;;;;21.53;6.90;;;;;;;6.52;100.00;102022.81;7393436;19;20422;-36
2023/04/20 10:00:33;;;;;;;18.50;6.60;;;;;;;6.36;100.00;102026.72;7391203;19;20524;-35
2023/04/20 10:03:03;;;;;;;26.33;9.67;;;;;;;6.27;100.00;102032.03;7394834;19;20403;-35
2023/04/20 10:05:38;;;;;;;19.13;8.97;;;;;;;6.26;100.00;102009.72;7388364;19;20455;-36
2023/04/20 10:08:08;;;;;;;26.40;8.90;;;;;;;6.22;100.00;101997.44;7393413;19;20419;-35
2023/04/20 10:10:51;;;;;;;37.23;10.30;;;;;;;6.30;100.00;101986.13;7390347;19;20467;-35
2023/04/20 10:13:22;;;;;;;29.00;9.20;;;;;;;6.38;100.00;101976.47;7393264;19;20407;-35
2023/04/20 10:15:51;;;;;;;20.13;7.73;;;;;;;6.37;100.00;101969.56;7390789;19;21058;-35
2023/04/20 10:18:23;;;;;;;18.87;7.90;;;;;;;6.73;100.00;101977.44;7392584;19;20449;-36
2023/04/20 10:20:54;;;;;;;24.53;9.70;;;;;;;7.05;100.00;101989.25;7391287;19;20451;-35
2023/04/20 10:23:24;;;;;;;18.80;7.83;;;;;;;7.24;100.00;101995.78;7392601;19;20524;-48
2023/04/20 10:26:01;;;;;;;19.13;8.17;;;;;;;7.23;100.00;102006.84;7390544;19;20851;-36
2023/04/20 10:28:41;;;;;;;19.73;7.00;;;;;;;7.30;100.00;102019.34;7390887;19;20403;-35
2023/04/20 10:31:12;;;;;;;15.57;6.80;;;;;;;7.32;100.00;102022.03;7389977;19;20443;-35
2023/04/20 10:33:52;;;;;;;16.50;6.70;;;;;;;7.27;100.00;102040.56;7391014;19;20423;-35
2023/04/20 10:36:26;;;;;;;16.47;6.83;;;;;;;7.33;100.00;102052.94;7393192;19;20886;-36
2023/04/20 10:38:55;;;;;;;15.37;6.50;;;;;;;7.35;100.00;102056.53;7386925;19;20395;-35
2023/04/20 10:41:28;;;;;;;20.37;7.30;;;;;;;7.41;100.00;102061.22;7396994;19;20391;-35
2023/04/20 10:43:57;;;;;;;16.77;6.50;;;;;;;7.27;100.00;102073.00;7398540;19;20422;-36
2023/04/20 10:46:27;;;;;;;20.73;7.60;;;;;;;7.34;100.00;102080.41;7395995;19;20435;-35
2023/04/20 10:48:57;;;;;;;23.80;8.00;;;;;;;7.42;100.00;102081.91;7396024;19;20767;-35
2023/04/20 10:51:27;;;;;;;21.03;8.43;;;;;;;7.39;100.00;102086.78;7395430;19;20524;-35
2023/04/20 10:54:05;;;;;;;17.90;8.00;;;;;;;7.46;100.00;102095.88;7394969;19;20426;-35
2023/04/20 10:56:43;;;;;;;27.63;10.03;;;;;;;7.53;100.00;102105.81;7396457;19;20446;-35
2023/04/20 10:59:14;;;;;;;15.37;6.50;;;;;;;7.64;100.00;102106.63;7395789;19;20406;-36
2023/04/20 11:01:45;;;;;;;21.90;8.87;;;;;;;7.60;100.00;102121.69;7400480;19;20407;-35
2023/04/20 11:04:15;;;;;;;14.33;6.73;;;;;;;7.47;100.00;102130.13;7394982;19;20934;-36
2023/04/20 11:06:49;;;;;;;15.80;7.20;;;;;;;7.50;100.00;102138.09;7397278;19;20454;-35
2023/04/20 11:09:21;;;;;;;33.93;10.40;;;;;;;7.50;100.00;102132.94;7386459;19;20446;-35
2023/04/20 11:12:03;;;;;;;17.30;6.90;;;;;;;7.43;100.00;102129.91;7397205;19;20431;-35
2023/04/20 11:14:33;;;;;;;24.43;8.43;;;;;;;7.55;100.00;102124.81;7393572;19;20454;-36
2023/04/20 11:17:03;;;;;;;15.27;7.40;;;;;;;7.64;100.00;102124.59;7397651;19;20443;-35
2023/04/20 11:19:34;;;;;;;38.07;12.10;;;;;;;7.91;100.00;102117.19;7393850;19;20958;-35
2023/04/20 11:22:05;;;;;;;58.73;16.63;;;;;;;7.98;100.00;102118.53;7397224;19;20781;-35
2023/04/20 11:24:36;;;;;;;19.37;8.90;;;;;;;8.12;100.00;102140.13;7393480;19;20443;-36
2023/04/20 11:27:08;;;;;;;18.53;8.60;;;;;;;8.10;100.00;102149.38;7397630;19;20808;-35
2023/04/20 11:29:38;;;;;;;23.73;8.93;;;;;;;8.21;100.00;102153.66;7394038;19;20462;-37
2023/04/20 11:32:10;;;;;;;19.30;8.10;;;;;;;8.21;100.00;102165.63;7398799;19;20410;-35
2023/04/20 11:34:41;;;;;;;22.47;8.37;;;;;;;8.27;100.00;102180.59;7396315;19;20482;-36